Historyczne dane pomiarowe

Dodano dane terminowe – wersja testowa.

Dane z okresu 1951-2019

Wersja bazy: 1.34 [2019-03-16, lista zmian], aktualizacja planowana na 2019-04-15

Dane meteo z obszaru Polski uzyskane na podstawie danych udostępnionych przez Instytut Meteorologii i Gospodarki Wodnej – Państwowy Instytut Badawczy.

 

Wybierz Datę:    

       

TemperaturaWilgotnośćWiatrCiśnienieOpadyŚniegCzas trwania zjawisk
 Stacja t tx tn tng RH VA  wxwx mslp ppp RRR   cm mm wxwxwxwxwxwxwx
1961-08-14 13.3 17.3 6.8- 87.0- 4.0 2.0---- 0.0------------
1961-08-13 12.4 17.7 8.9- 85.0- 2.7 3.0---- 0.0------------
1961-08-12 15.1 19.7 13.0- 89.5- 5.0 2.0---- 0.0------------
1961-08-11 16.5 20.0 14.8- 95.0- 5.0 0.7---- 0.0------------
1961-08-10 17.3 21.0 12.3- 90.0- 5.7 2.3---- 21.5------------
1961-08-09 17.4 22.8 13.6- 84.8- 2.0 2.3---- 0.0------------
1961-08-08 16.3 19.8 6.8- 83.3- 3.7 1.7---- 0.0------------
1961-08-07 14.7 19.6 12.8- 91.3- 4.7 2.7---- 11.0------------
1961-08-06 18.2 26.1 13.8- 85.3- 4.0 4.0---- 10.5------------
1961-08-05 18.1 22.1 13.3- 82.8- 6.7 3.7---- 3.0------------
1961-08-04 13.0 14.4 7.5- 97.5- 7.3 4.7---- 4.3------------
1961-08-03 12.7 16.7 8.6- 95.8- 6.0 3.0---- 0.0------------
1961-08-02 15.7 20.1 8.6- 89.0- 4.3 1.7---- 0.3------------
1961-08-01 12.8 17.0 11.5- 96.5- 5.0 6.7---- 3.0------------
1961-07-31 12.7 14.5 8.7- 97.3- 6.0 7.3---- 53.5------------
1961-07-30 13.4 16.2 8.4- 93.8- 6.0 3.7---- 1.5------------
1961-07-29 12.9 16.7 9.7- 90.8- 5.7 3.3---- 0.0------------
1961-07-28 13.0 15.2 11.5- 93.3- 5.3 2.0---- 2.0------------
1961-07-27 16.1 19.8 14.4- 82.0- 6.0 3.3---- 2.3------------
1961-07-26 16.3 21.3 11.8- 86.3- 7.0 5.0---- 1.1------------
1961-07-25 13.6 16.6 11.4- 87.3- 6.0 3.3---- 1.5------------
1961-07-24 13.2 16.5 9.6- 85.3- 4.7 3.7---- 0.0------------
1961-07-23 13.7 16.2 12.3- 88.0- 6.3 3.0---- 0.0------------
1961-07-22 14.1 16.4 12.0- 93.3- 6.0 2.7---- 0.0------------
1961-07-21 14.4 17.4 12.9- 95.5- 7.3 2.0---- 10.1------------
1961-07-20 15.1 19.3 11.8- 86.8- 5.7 2.7---- 6.3------------
1961-07-19 15.6 20.0 11.9- 86.0- 5.7 2.7---- 0.0------------
1961-07-18 14.9 18.6 11.5- 89.3- 5.3 3.0---- 1.9------------
1961-07-17 13.4 18.3 8.9- 94.5- 7.0 1.7---- 0.0------------
1961-07-16 14.8 18.3 12.7- 90.3- 3.3 2.0---- 7.0------------
1961-07-15 15.6 21.1 13.2- 74.0- 3.3 2.3---- 0.0------------
1961-07-14 12.7 16.7 11.5- 90.5- 7.0 4.3---- 0.8------------
1961-07-13 18.3 25.8 15.1- 85.8- 4.7 4.7---- 16.5------------
1961-07-12 17.9 23.6 13.1- 87.5- 5.0 2.0---- 0.0------------
1961-07-11 15.4 18.3 10.2- 86.0- 5.3 2.0---- 7.1------------
1961-07-10 12.8 15.5 10.4- 86.0- 5.0 3.7---- 2.4------------
1961-07-09 12.9 15.5 11.8- 94.8- 7.3 4.3---- 16.0------------
1961-07-08 15.5 20.0 8.2- 85.8- 6.7 3.3---- 3.8------------
1961-07-07 12.0 16.7 8.1- 90.8- 4.7 2.3---- 0.0------------
1961-07-06 11.8 16.7 7.7- 89.5- 5.0 3.7---- 1.5------------
1961-07-05 12.0 15.7 9.5- 85.0- 3.3 4.3---- 3.0------------
1961-07-04 13.9 17.2 11.2- 96.8- 4.3 3.7---- 3.9------------
1961-07-03 21.0 30.8 15.4- 89.8- 3.7 3.7---- 0.0------------
1961-07-02 20.2 29.5 9.5- 84.3- 0.0 1.7---- 0.0------------
1961-07-01 18.5 26.3 5.2- 72.3- 0.3 2.0---- 0.0------------
1961-06-30 16.3 24.3 9.6- 83.5- 0.3 1.7---- 0.0------------
1961-06-29 15.2 20.6 10.0- 87.0- 3.7 3.3---- 0.0------------
1961-06-28 14.8 17.2 10.7- 82.3- 4.7 5.3---- 1.0------------
1961-06-27 18.9 23.8 16.2- 93.0- 6.0 3.7---- 4.9------------
1961-06-26 21.5 27.1 13.3- 68.8- 0.3 2.3---- 0.0------------
1961-06-25 21.4 25.5 12.7- 81.0- 1.0 6.0---- 0.0------------
1961-06-24 17.2 22.3 12.0- 82.5- 2.7 4.3---- 0.0------------
1961-06-23 16.4 20.8 9.0- 87.0- 2.3 3.0---- 0.0------------
1961-06-22 16.7 20.8 5.3- 84.8- 2.7 2.3---- 0.0------------
1961-06-21 12.3 19.1 7.6- 89.5- 3.3 2.0---- 5.5------------
1961-06-20 13.2 18.5 7.9- 82.8- 3.0 3.0---- 0.0------------
1961-06-19 13.6 18.3 11.2- 76.0- 2.7 4.3---- 0.0------------
1961-06-18 19.3 24.9 14.6- 89.3- 5.3 4.7---- 0.0------------
1961-06-17 16.3 22.3 8.0- 85.8- 2.0 3.3---- 0.0------------
1961-06-16 12.0 17.0 10.2- 84.8- 5.3 4.3---- 0.0------------
283.7 ms

 

Źródłem pochodzenia danych jest Instytut Meteorologii i Gospodarki Wodnej – Państwowy Instytut Badawczy. Dane Instytutu Meteorologii i Gospodarki Wodnej – Państwowego Instytutu Badawczego zostały przetworzone.

Dane źródłowe można odnaleźć na stronie https://dane.imgw.pl